createdAt,value
2023-02-08T00:03:16.169Z,100.00
2023-02-08T00:08:17.771Z,100.00
2023-02-08T00:13:20.480Z,100.00
2023-02-08T00:18:22.625Z,100.00
2023-02-08T00:23:25.170Z,100.00
2023-02-08T00:28:26.916Z,100.00
2023-02-08T00:33:28.475Z,100.00
2023-02-08T00:38:30.463Z,100.00
2023-02-08T00:43:32.253Z,100.00
2023-02-08T00:48:33.940Z,100.00
2023-02-08T00:53:38.141Z,100.00
2023-02-08T00:58:40.417Z,100.00
2023-02-08T01:03:43.124Z,100.00
2023-02-08T01:08:44.766Z,100.00
2023-02-08T01:13:46.523Z,100.00
2023-02-08T01:18:50.260Z,100.00
2023-02-08T01:23:52.145Z,100.00
2023-02-08T01:28:55.054Z,100.00
2023-02-08T01:33:59.010Z,100.00
2023-02-08T01:39:01.302Z,100.00
2023-02-08T01:44:09.026Z,100.00
2023-02-08T01:49:19.495Z,100.00
2023-02-08T01:54:25.932Z,100.00
2023-02-08T01:59:40.756Z,100.00
2023-02-08T02:04:43.963Z,100.00
2023-02-08T02:10:08.758Z,100.00
2023-02-08T02:15:11.261Z,100.00
2023-02-08T02:20:22.697Z,100.00
2023-02-08T02:25:24.213Z,100.00
2023-02-08T02:30:47.486Z,100.00
2023-02-08T02:35:56.972Z,100.00
2023-02-08T02:41:19.690Z,100.00
2023-02-08T02:46:31.987Z,100.00
2023-02-08T02:52:01.824Z,100.00
2023-02-08T02:57:07.342Z,100.00
2023-02-08T03:02:10.328Z,100.00
2023-02-08T03:07:31.123Z,100.00
2023-02-08T03:12:35.281Z,100.00
2023-02-08T03:17:58.148Z,100.00
2023-02-08T03:23:08.283Z,100.00
2023-02-08T03:28:32.529Z,100.00
2023-02-08T03:33:42.791Z,100.00
2023-02-08T03:38:47.965Z,100.00
2023-02-08T03:44:00.671Z,100.00
2023-02-08T03:49:19.710Z,100.00
2023-02-08T03:54:26.370Z,100.00
2023-02-08T03:59:31.810Z,100.00
2023-02-08T04:04:36.901Z,100.00
2023-02-08T04:09:38.990Z,100.00
2023-02-08T04:14:40.758Z,100.00
2023-02-08T04:19:42.348Z,100.00
2023-02-08T04:24:43.916Z,100.00
2023-02-08T04:29:45.481Z,100.00
2023-02-08T04:34:46.997Z,100.00
2023-02-08T04:39:48.612Z,100.00
2023-02-08T04:44:50.183Z,100.00
2023-02-08T04:49:51.711Z,100.00
2023-02-08T04:54:56.009Z,100.00
2023-02-08T05:00:00.070Z,100.00
2023-02-08T05:05:02.011Z,100.00
2023-02-08T05:10:05.080Z,100.00
2023-02-08T05:15:06.851Z,100.00
2023-02-08T05:20:09.320Z,100.00
2023-02-08T05:25:10.921Z,100.00
2023-02-08T05:30:12.909Z,100.00
2023-02-08T05:35:14.535Z,100.00
2023-02-08T05:40:16.239Z,100.00
2023-02-08T05:45:17.816Z,100.00
2023-02-08T05:50:19.438Z,100.00
2023-02-08T05:55:25.383Z,100.00
2023-02-08T06:00:27.380Z,100.00
2023-02-08T06:05:29.050Z,100.00
2023-02-08T06:10:30.621Z,100.00
2023-02-08T06:15:32.218Z,100.00
2023-02-08T06:20:33.742Z,100.00
2023-02-08T06:25:35.418Z,100.00
2023-02-08T06:30:38.623Z,100.00
2023-02-08T06:35:40.317Z,100.00
2023-02-08T06:40:42.372Z,100.00
2023-02-08T06:45:46.176Z,100.00
2023-02-08T06:50:47.804Z,100.00
2023-02-08T06:55:50.078Z,100.00
2023-02-08T07:00:51.734Z,100.00
2023-02-08T07:06:04.491Z,100.00
2023-02-08T07:11:11.769Z,100.00
2023-02-08T07:16:13.359Z,100.00
2023-02-08T07:21:15.145Z,100.00
2023-02-08T07:26:16.678Z,100.00
2023-02-08T07:31:18.321Z,100.00
2023-02-08T07:36:19.844Z,100.00
2023-02-08T07:41:21.448Z,100.00
2023-02-08T07:46:23.308Z,100.00
2023-02-08T07:51:25.002Z,100.00
2023-02-08T07:56:26.707Z,100.00
2023-02-08T08:01:28.351Z,100.00
2023-02-08T08:06:29.930Z,100.00
2023-02-08T08:11:32.136Z,100.00
2023-02-08T08:16:33.727Z,100.00
2023-02-08T08:21:35.245Z,100.00
2023-02-08T08:26:36.950Z,99.26
2023-02-08T08:31:38.499Z,96.77
2023-02-08T08:36:40.207Z,95.63
2023-02-08T08:41:41.735Z,96.69
2023-02-08T08:46:43.360Z,94.96
2023-02-08T08:51:47.140Z,93.11
2023-02-08T08:56:48.664Z,95.96
2023-02-08T09:01:50.314Z,94.20
2023-02-08T09:06:53.525Z,90.52
2023-02-08T09:11:55.077Z,89.87
2023-02-08T09:16:56.682Z,87.48
2023-02-08T09:21:58.208Z,86.29
2023-02-08T09:26:59.869Z,79.60
2023-02-08T09:32:01.567Z,77.42
2023-02-08T09:37:03.200Z,76.79
2023-02-08T09:42:39.441Z,75.84
2023-02-08T09:48:00.253Z,72.85
2023-02-08T09:53:30.654Z,68.86
2023-02-08T09:58:41.295Z,65.68
2023-02-08T10:03:44.920Z,64.90
2023-02-08T10:08:49.754Z,65.81
2023-02-08T10:13:57.112Z,64.08
2023-02-08T10:19:22.929Z,67.13
2023-02-08T10:24:47.356Z,60.95
2023-02-08T10:29:58.014Z,59.20
2023-02-08T10:35:06.455Z,62.59
2023-02-08T10:40:26.744Z,59.48
2023-02-08T10:45:39.834Z,59.12
2023-02-08T10:50:44.189Z,56.03
2023-02-08T10:55:48.000Z,55.02
2023-02-08T11:00:50.051Z,55.20
2023-02-08T11:05:52.641Z,54.21
2023-02-08T11:11:08.825Z,53.54
2023-02-08T11:16:22.268Z,52.20
2023-02-08T11:21:30.683Z,48.47
2023-02-08T11:26:38.460Z,46.40
2023-02-08T11:31:55.841Z,49.79
2023-02-08T11:36:59.172Z,45.48
2023-02-08T11:42:02.255Z,44.41
2023-02-08T11:47:08.397Z,39.36
2023-02-08T11:52:22.165Z,42.10
2023-02-08T11:57:26.369Z,41.38
2023-02-08T12:02:39.879Z,41.12
2023-02-08T12:08:04.176Z,43.33
2023-02-08T12:13:35.772Z,43.61
2023-02-08T12:19:16.407Z,42.52
2023-02-08T12:24:45.747Z,41.23
2023-02-08T12:30:06.034Z,37.86
2023-02-08T12:35:13.433Z,38.81
2023-02-08T12:40:42.320Z,36.66
2023-02-08T12:46:03.242Z,38.22
2023-02-08T12:51:16.949Z,39.03
2023-02-08T12:56:23.783Z,37.30
2023-02-08T13:01:41.684Z,38.47
2023-02-08T13:06:47.175Z,37.65
2023-02-08T13:11:51.408Z,36.35
2023-02-08T13:16:58.277Z,38.27
2023-02-08T13:22:00.603Z,34.66
2023-02-08T13:27:02.525Z,37.41
2023-02-08T13:32:14.569Z,36.52
2023-02-08T13:37:25.765Z,35.82
2023-02-08T13:42:39.778Z,36.78
2023-02-08T13:47:48.647Z,39.95
2023-02-08T13:52:51.190Z,36.47
2023-02-08T13:57:55.191Z,35.36
2023-02-08T14:03:15.201Z,36.29
2023-02-08T14:08:43.079Z,36.28
2023-02-08T14:14:12.910Z,36.42
2023-02-08T14:19:17.484Z,36.77
2023-02-08T14:24:27.014Z,38.23
2023-02-08T14:29:28.636Z,37.13
2023-02-08T14:34:37.777Z,39.19
2023-02-08T14:39:39.654Z,36.20
2023-02-08T14:44:41.208Z,35.05
2023-02-08T14:49:44.762Z,34.42
2023-02-08T14:55:07.876Z,35.93
2023-02-08T15:00:26.892Z,36.16
2023-02-08T15:05:35.694Z,37.32
2023-02-08T15:10:42.259Z,36.60
2023-02-08T15:15:44.447Z,39.45
2023-02-08T15:20:53.744Z,41.60
2023-02-08T15:26:06.301Z,41.61
2023-02-08T15:31:14.689Z,39.59
2023-02-08T15:36:29.486Z,38.19
2023-02-08T15:41:33.867Z,38.55
2023-02-08T15:46:37.099Z,41.61
2023-02-08T15:51:38.722Z,41.60
2023-02-08T15:56:42.386Z,42.75
2023-02-08T16:01:47.829Z,44.06
2023-02-08T16:06:53.207Z,46.53
2023-02-08T16:12:00.333Z,47.25
2023-02-08T16:17:02.004Z,46.73
2023-02-08T16:22:12.947Z,48.94
2023-02-08T16:27:24.370Z,50.15
2023-02-08T16:32:33.426Z,52.58
2023-02-08T16:37:35.272Z,52.00
2023-02-08T16:42:38.817Z,51.92
2023-02-08T16:47:48.365Z,53.10
2023-02-08T16:53:02.413Z,52.88
2023-02-08T16:58:04.036Z,54.03
2023-02-08T17:03:05.622Z,54.19
2023-02-08T17:08:12.692Z,59.51
2023-02-08T17:13:20.433Z,59.50
2023-02-08T17:18:22.823Z,59.58
2023-02-08T17:23:24.705Z,61.61
2023-02-08T17:28:27.172Z,64.11
2023-02-08T17:33:28.794Z,66.57
2023-02-08T17:38:30.383Z,65.50
2023-02-08T17:43:32.221Z,68.07
2023-02-08T17:48:33.722Z,68.14
2023-02-08T17:53:35.232Z,69.27
2023-02-08T17:58:36.942Z,69.01
2023-02-08T18:03:38.530Z,66.76
2023-02-08T18:08:40.659Z,65.12
2023-02-08T18:13:42.263Z,66.11
2023-02-08T18:18:44.324Z,66.62
2023-02-08T18:23:46.963Z,66.23
2023-02-08T18:28:48.584Z,67.35
2023-02-08T18:33:50.415Z,67.47
2023-02-08T18:38:53.448Z,69.18
2023-02-08T18:43:56.686Z,70.16
2023-02-08T18:48:58.260Z,72.67
2023-02-08T18:53:59.838Z,74.38
2023-02-08T18:59:04.084Z,74.30
2023-02-08T19:04:06.112Z,75.27
2023-02-08T19:09:08.620Z,75.96
2023-02-08T19:14:12.940Z,77.91
2023-02-08T19:19:14.472Z,78.88
2023-02-08T19:24:16.078Z,75.83
2023-02-08T19:29:18.908Z,75.86
2023-02-08T19:34:20.679Z,72.00
2023-02-08T19:39:25.691Z,70.03
2023-02-08T19:44:30.253Z,71.69
2023-02-08T19:49:32.257Z,74.25
2023-02-08T19:54:33.822Z,78.18
2023-02-08T19:59:35.564Z,70.34
2023-02-08T20:04:37.755Z,70.13
2023-02-08T20:09:39.336Z,72.43
2023-02-08T20:14:40.909Z,74.43
2023-02-08T20:19:42.504Z,76.23
2023-02-08T20:24:44.044Z,74.78
2023-02-08T20:29:45.619Z,74.97
2023-02-08T20:34:58.344Z,74.73
2023-02-08T20:40:00.878Z,73.13
2023-02-08T20:45:02.793Z,72.09
2023-02-08T20:50:16.849Z,74.27
2023-02-08T20:55:20.299Z,72.90
2023-02-08T21:00:24.209Z,70.75
2023-02-08T21:05:29.696Z,69.46
2023-02-08T21:10:31.252Z,69.34
2023-02-08T21:15:32.917Z,70.72
2023-02-08T21:20:37.676Z,72.51
2023-02-08T21:25:39.822Z,72.04
2023-02-08T21:30:41.460Z,71.85
2023-02-08T21:35:43.062Z,72.28
2023-02-08T21:40:44.816Z,75.84
2023-02-08T21:45:46.491Z,78.41
2023-02-08T21:50:48.044Z,73.35
2023-02-08T21:55:49.629Z,74.79
2023-02-08T22:00:51.125Z,78.19
2023-02-08T22:05:52.858Z,77.44
2023-02-08T22:10:58.516Z,78.12
2023-02-08T22:16:00.695Z,79.24
2023-02-08T22:21:04.166Z,80.50
2023-02-08T22:26:09.100Z,85.14
2023-02-08T22:31:13.149Z,84.03
2023-02-08T22:36:14.739Z,83.31
2023-02-08T22:41:17.003Z,87.00
2023-02-08T22:46:18.751Z,90.04
2023-02-08T22:51:20.535Z,87.65
2023-02-08T22:56:22.195Z,85.96
2023-02-08T23:01:23.933Z,86.05
2023-02-08T23:06:25.599Z,84.47
2023-02-08T23:11:27.758Z,84.40
2023-02-08T23:16:29.447Z,82.05
2023-02-08T23:21:31.098Z,82.05
2023-02-08T23:26:32.823Z,83.04
2023-02-08T23:31:34.596Z,78.97
2023-02-08T23:36:36.258Z,80.08
2023-02-08T23:41:37.855Z,82.02
2023-02-08T23:46:39.996Z,83.63
2023-02-08T23:51:41.582Z,84.82
2023-02-08T23:56:43.105Z,84.56
